createdAt,value
2022-11-15T00:01:50.420Z,59.27
2022-11-15T00:04:35.927Z,59.43
2022-11-15T00:07:48.475Z,59.50
2022-11-15T00:10:26.125Z,59.48
2022-11-15T00:13:12.896Z,59.43
2022-11-15T00:15:59.774Z,59.72
2022-11-15T00:18:50.391Z,59.75
2022-11-15T00:21:36.450Z,59.95
2022-11-15T00:24:30.272Z,60.03
2022-11-15T00:27:15.075Z,60.23
2022-11-15T00:30:00.001Z,60.19
2022-11-15T00:32:44.841Z,60.09
2022-11-15T00:35:35.056Z,60.30
2022-11-15T00:38:20.149Z,60.13
2022-11-15T00:41:09.645Z,60.11
2022-11-15T00:43:55.076Z,60.17
2022-11-15T00:46:44.395Z,60.16
2022-11-15T00:49:29.477Z,60.52
2022-11-15T00:52:14.380Z,60.42
2022-11-15T00:54:59.797Z,60.57
2022-11-15T00:57:45.530Z,60.36
2022-11-15T01:00:30.772Z,60.32
2022-11-15T01:03:16.132Z,60.61
2022-11-15T01:06:03.309Z,60.31
2022-11-15T01:08:48.673Z,60.32
2022-11-15T01:11:33.667Z,60.59
2022-11-15T01:14:25.401Z,60.60
2022-11-15T01:17:11.202Z,60.55
2022-11-15T01:19:56.339Z,60.37
2022-11-15T01:22:41.593Z,60.44
2022-11-15T01:25:31.909Z,60.67
2022-11-15T01:28:16.947Z,60.91
2022-11-15T01:31:03.471Z,60.66
2022-11-15T01:33:49.472Z,60.66
2022-11-15T01:36:37.807Z,60.76
2022-11-15T01:39:22.889Z,60.69
2022-11-15T01:42:13.726Z,60.99
2022-11-15T01:44:59.848Z,61.15
2022-11-15T01:47:52.207Z,61.14
2022-11-15T01:50:37.335Z,61.03
2022-11-15T01:53:25.436Z,61.11
2022-11-15T01:56:19.248Z,60.83
2022-11-15T01:59:06.775Z,61.20
2022-11-15T02:01:51.942Z,61.35
2022-11-15T02:04:46.632Z,61.21
2022-11-15T02:07:33.129Z,61.24
2022-11-15T02:10:21.062Z,61.18
2022-11-15T02:13:06.020Z,61.37
2022-11-15T02:16:27.032Z,61.27
2022-11-15T02:19:36.696Z,61.15
2022-11-15T02:23:16.788Z,61.41
2022-11-15T02:26:42.637Z,61.48
2022-11-15T02:29:54.744Z,61.51
2022-11-15T02:32:46.644Z,61.56
2022-11-15T02:35:49.940Z,61.62
2022-11-15T02:39:06.121Z,61.78
2022-11-15T02:42:01.317Z,61.94
2022-11-15T02:44:51.300Z,61.96
2022-11-15T02:47:44.263Z,61.98
2022-11-15T02:50:32.828Z,61.88
2022-11-15T02:53:17.755Z,62.05
2022-11-15T02:56:04.288Z,62.03
2022-11-15T02:59:19.683Z,62.12
2022-11-15T03:02:19.697Z,62.27
2022-11-15T03:05:38.623Z,62.30
2022-11-15T03:08:50.194Z,62.11
2022-11-15T03:11:42.223Z,62.36
2022-11-15T03:14:37.039Z,62.42
2022-11-15T03:17:27.415Z,62.62
2022-11-15T03:20:16.511Z,62.42
2022-11-15T03:23:06.082Z,62.82
2022-11-15T03:25:55.716Z,62.67
2022-11-15T03:28:47.670Z,63.05
2022-11-15T03:31:50.985Z,62.81
2022-11-15T03:34:50.554Z,63.03
2022-11-15T03:37:50.479Z,62.76
2022-11-15T03:40:40.713Z,62.59
2022-11-15T03:43:41.925Z,62.67
2022-11-15T03:46:42.169Z,62.78
2022-11-15T03:49:33.772Z,62.71
2022-11-15T03:52:20.924Z,63.08
2022-11-15T03:55:11.917Z,63.13
2022-11-15T03:57:59.915Z,63.21
2022-11-15T04:00:45.083Z,63.19
2022-11-15T04:03:30.391Z,62.87
2022-11-15T04:06:16.674Z,63.15
2022-11-15T04:09:01.701Z,63.47
2022-11-15T04:11:46.841Z,63.55
2022-11-15T04:14:34.796Z,63.43
2022-11-15T04:17:19.745Z,63.50
2022-11-15T04:20:29.390Z,63.19
2022-11-15T04:23:41.397Z,63.47
2022-11-15T04:26:26.732Z,63.56
2022-11-15T04:29:30.642Z,63.22
2022-11-15T04:32:15.717Z,63.67
2022-11-15T04:35:01.695Z,63.62
2022-11-15T04:37:49.475Z,63.42
2022-11-15T04:40:35.929Z,63.58
2022-11-15T04:43:21.012Z,63.43
2022-11-15T04:46:07.622Z,63.54
2022-11-15T04:48:58.259Z,63.75
2022-11-15T04:51:44.155Z,63.78
2022-11-15T04:54:30.726Z,63.66
2022-11-15T04:57:16.551Z,63.86
2022-11-15T05:00:04.188Z,63.57
2022-11-15T05:03:08.268Z,63.73
2022-11-15T05:06:19.681Z,63.87
2022-11-15T05:09:04.972Z,63.85
2022-11-15T05:11:49.767Z,63.67
2022-11-15T05:14:37.645Z,63.57
2022-11-15T05:17:22.457Z,63.43
2022-11-15T05:20:08.140Z,63.44
2022-11-15T05:22:56.316Z,63.67
2022-11-15T05:25:46.026Z,63.53
2022-11-15T05:28:32.190Z,63.25
2022-11-15T05:31:17.433Z,63.25
2022-11-15T05:34:05.537Z,63.64
2022-11-15T05:36:52.298Z,63.49
2022-11-15T05:39:37.527Z,63.54
2022-11-15T05:42:23.048Z,63.54
2022-11-15T05:45:09.589Z,63.51
2022-11-15T05:47:57.768Z,63.72
2022-11-15T05:50:45.976Z,63.82
2022-11-15T05:53:32.347Z,63.57
2022-11-15T05:56:17.853Z,63.85
2022-11-15T05:59:03.961Z,63.42
2022-11-15T06:01:48.762Z,63.99
2022-11-15T06:04:38.161Z,63.74
2022-11-15T06:07:23.453Z,63.71
2022-11-15T06:10:09.285Z,63.77
2022-11-15T06:13:01.308Z,63.53
2022-11-15T06:15:51.039Z,63.66
2022-11-15T06:18:37.255Z,63.66
2022-11-15T06:21:22.880Z,63.51
2022-11-15T06:24:08.245Z,64.04
2022-11-15T06:26:55.332Z,64.06
2022-11-15T06:29:40.217Z,63.84
2022-11-15T06:32:25.224Z,64.00
2022-11-15T06:35:09.982Z,64.07
2022-11-15T06:37:55.274Z,63.91
2022-11-15T06:40:40.831Z,63.91
2022-11-15T06:43:25.680Z,63.76
2022-11-15T06:46:12.502Z,63.90
2022-11-15T06:48:57.643Z,64.21
2022-11-15T06:51:43.007Z,63.94
2022-11-15T06:54:31.296Z,64.04
2022-11-15T06:57:16.213Z,64.06
2022-11-15T07:00:01.598Z,63.78
2022-11-15T07:02:47.101Z,64.08
2022-11-15T07:05:36.769Z,64.25
2022-11-15T07:08:23.318Z,63.94
2022-11-15T07:11:09.488Z,63.77
2022-11-15T07:13:54.620Z,64.28
2022-11-15T07:16:42.564Z,64.05
2022-11-15T07:19:27.657Z,63.94
2022-11-15T07:22:12.722Z,63.71
2022-11-15T07:24:58.508Z,64.15
2022-11-15T07:27:43.679Z,63.99
2022-11-15T07:30:28.825Z,63.60
2022-11-15T07:33:14.187Z,64.02
2022-11-15T07:36:05.471Z,63.89
2022-11-15T07:38:50.424Z,64.08
2022-11-15T07:41:35.992Z,63.80
2022-11-15T07:44:30.197Z,64.10
2022-11-15T07:47:15.091Z,64.22
2022-11-15T07:50:00.442Z,63.91
2022-11-15T07:52:45.658Z,63.73
2022-11-15T07:55:34.984Z,63.97
2022-11-15T07:58:20.542Z,64.01
2022-11-15T08:01:11.058Z,64.06
2022-11-15T08:03:56.075Z,64.12
2022-11-15T08:06:42.244Z,64.31
2022-11-15T08:09:27.629Z,63.86
2022-11-15T08:12:12.824Z,64.21
2022-11-15T08:14:58.660Z,64.03
2022-11-15T08:17:43.832Z,64.05
2022-11-15T08:20:33.347Z,63.77
2022-11-15T08:23:18.288Z,64.09
2022-11-15T08:26:05.675Z,64.14
2022-11-15T08:28:50.885Z,64.17
2022-11-15T08:31:37.412Z,64.17
2022-11-15T08:34:26.719Z,64.31
2022-11-15T08:37:11.681Z,64.03
2022-11-15T08:39:56.426Z,64.20
2022-11-15T08:42:41.466Z,63.88
2022-11-15T08:45:31.838Z,63.91
2022-11-15T08:48:16.786Z,64.25
2022-11-15T08:51:01.627Z,64.01
2022-11-15T08:53:47.018Z,64.32
2022-11-15T08:56:32.203Z,63.88
2022-11-15T08:59:17.429Z,63.89
2022-11-15T09:02:02.747Z,63.83
2022-11-15T09:04:49.059Z,64.12
2022-11-15T09:07:34.452Z,64.18
2022-11-15T09:10:19.461Z,63.86
2022-11-15T09:13:04.802Z,63.97
2022-11-15T09:15:49.949Z,64.15
2022-11-15T09:18:35.619Z,63.97
2022-11-15T09:21:21.158Z,64.09
2022-11-15T09:24:06.252Z,64.03
2022-11-15T09:26:52.582Z,64.34
2022-11-15T09:29:37.552Z,64.10
2022-11-15T09:32:24.217Z,63.93
2022-11-15T09:35:13.210Z,64.06
2022-11-15T09:37:59.028Z,64.08
2022-11-15T09:40:44.340Z,63.99
2022-11-15T09:43:57.037Z,63.65
2022-11-15T09:47:19.429Z,63.59
2022-11-15T09:50:21.346Z,63.71
2022-11-15T09:52:47.877Z,63.20
2022-11-15T09:55:22.246Z,63.18
2022-11-15T09:57:57.613Z,63.06
2022-11-15T10:00:47.632Z,62.83
2022-11-15T10:03:24.529Z,62.59
2022-11-15T10:05:58.474Z,62.27
2022-11-15T10:08:27.921Z,62.45
2022-11-15T10:11:30.552Z,61.92
2022-11-15T10:13:50.394Z,61.70
2022-11-15T10:16:29.367Z,61.82
2022-11-15T10:19:07.727Z,61.45
2022-11-15T10:22:00.455Z,61.17
2022-11-15T10:24:43.489Z,60.76
2022-11-15T10:27:15.819Z,60.34
2022-11-15T10:29:50.228Z,60.32
2022-11-15T10:32:20.563Z,59.47
2022-11-15T10:34:50.897Z,59.62
2022-11-15T10:37:30.329Z,59.50
2022-11-15T10:40:17.247Z,58.82
2022-11-15T10:42:43.801Z,58.73
2022-11-15T10:45:32.310Z,58.85
2022-11-15T10:48:14.092Z,58.11
2022-11-15T10:50:46.556Z,57.87
2022-11-15T10:53:34.094Z,57.47
2022-11-15T10:56:07.701Z,57.25
2022-11-15T10:58:42.475Z,57.44
2022-11-15T11:01:21.318Z,57.63
2022-11-15T11:04:06.136Z,57.06
2022-11-15T11:06:50.311Z,57.08
2022-11-15T11:09:43.434Z,57.26
2022-11-15T11:12:13.240Z,56.96
2022-11-15T11:14:41.368Z,57.16
2022-11-15T11:17:49.303Z,56.58
2022-11-15T11:20:39.411Z,56.88
2022-11-15T11:23:24.292Z,56.80
2022-11-15T11:26:17.981Z,56.70
2022-11-15T11:28:54.490Z,56.13
2022-11-15T11:31:37.927Z,56.02
2022-11-15T11:34:39.652Z,55.80
2022-11-15T11:37:18.867Z,56.04
2022-11-15T11:40:11.112Z,55.41
2022-11-15T11:42:58.932Z,55.24
2022-11-15T11:45:35.378Z,55.29
2022-11-15T11:48:41.135Z,54.71
2022-11-15T11:51:16.687Z,54.83
2022-11-15T11:53:56.931Z,54.15
2022-11-15T11:56:37.924Z,54.22
2022-11-15T11:59:24.201Z,54.04
2022-11-15T12:01:50.877Z,54.31
2022-11-15T12:04:41.727Z,54.17
2022-11-15T12:07:21.066Z,54.21
2022-11-15T12:09:57.357Z,53.65
2022-11-15T12:12:40.053Z,54.02
2022-11-15T12:15:20.389Z,53.85
2022-11-15T12:17:48.190Z,53.61
2022-11-15T12:20:22.553Z,53.36
2022-11-15T12:23:04.733Z,53.51
2022-11-15T12:25:38.720Z,53.22
2022-11-15T12:28:18.292Z,52.74
2022-11-15T12:31:07.219Z,52.81
2022-11-15T12:33:44.508Z,52.52
2022-11-15T12:36:23.315Z,52.54
2022-11-15T12:38:55.958Z,52.69
2022-11-15T12:41:29.853Z,52.51
2022-11-15T12:43:57.432Z,52.19
2022-11-15T12:46:29.731Z,52.18
2022-11-15T12:48:59.395Z,52.03
2022-11-15T12:51:44.415Z,51.96
2022-11-15T12:54:23.604Z,51.59
2022-11-15T12:57:33.332Z,51.61
2022-11-15T13:00:13.558Z,51.81
2022-11-15T13:02:42.704Z,51.34
2022-11-15T13:05:16.671Z,51.62
2022-11-15T13:07:43.195Z,51.63
2022-11-15T13:10:12.809Z,51.50
2022-11-15T13:12:42.602Z,51.68
2022-11-15T13:15:18.266Z,51.24
2022-11-15T13:17:46.311Z,51.31
2022-11-15T13:20:15.302Z,51.17
2022-11-15T13:22:51.902Z,51.00
2022-11-15T13:25:51.339Z,50.79
2022-11-15T13:28:17.775Z,50.96
2022-11-15T13:30:47.456Z,50.66
2022-11-15T13:33:40.422Z,50.74
2022-11-15T13:36:22.989Z,51.06
2022-11-15T13:39:02.167Z,50.97
2022-11-15T13:41:34.881Z,50.90
2022-11-15T13:44:03.696Z,50.46
2022-11-15T13:46:35.002Z,50.38
2022-11-15T13:49:12.375Z,50.73
2022-11-15T13:51:51.349Z,50.32
2022-11-15T13:54:43.937Z,50.38
2022-11-15T13:57:22.117Z,50.26
2022-11-15T13:59:55.685Z,50.59
2022-11-15T14:02:36.041Z,50.69
2022-11-15T14:05:20.708Z,50.53
2022-11-15T14:08:01.776Z,50.33
2022-11-15T14:10:37.256Z,50.30
2022-11-15T14:13:05.617Z,50.16
2022-11-15T14:15:37.671Z,50.39
2022-11-15T14:18:05.421Z,50.18
2022-11-15T14:20:39.286Z,50.64
2022-11-15T14:23:28.376Z,50.36
2022-11-15T14:25:59.752Z,50.31
2022-11-15T14:28:26.338Z,49.58
2022-11-15T14:30:56.361Z,50.31
2022-11-15T14:33:34.972Z,49.88
2022-11-15T14:36:19.971Z,50.18
2022-11-15T14:38:47.363Z,49.99
2022-11-15T14:41:21.719Z,50.46
2022-11-15T14:43:48.476Z,50.22
2022-11-15T14:46:20.032Z,50.16
2022-11-15T14:48:46.594Z,49.91
2022-11-15T14:51:19.853Z,49.95
2022-11-15T14:53:47.603Z,49.74
2022-11-15T14:56:15.522Z,49.90
2022-11-15T14:58:42.036Z,49.70
2022-11-15T15:01:24.484Z,49.78
2022-11-15T15:03:53.043Z,49.94
2022-11-15T15:06:24.176Z,49.71
2022-11-15T15:08:52.133Z,50.00
2022-11-15T15:11:23.624Z,50.05
2022-11-15T15:13:51.469Z,49.98
2022-11-15T15:16:20.722Z,49.81
2022-11-15T15:18:47.203Z,49.94
2022-11-15T15:21:22.915Z,49.77
2022-11-15T15:23:49.703Z,49.85
2022-11-15T15:26:17.393Z,49.96
2022-11-15T15:28:43.984Z,49.93
2022-11-15T15:31:11.374Z,49.46
2022-11-15T15:33:39.648Z,49.61
2022-11-15T15:36:14.361Z,49.78
2022-11-15T15:38:42.338Z,49.63
2022-11-15T15:41:14.458Z,49.61
2022-11-15T15:43:41.655Z,49.50
2022-11-15T15:46:13.501Z,49.88
2022-11-15T15:48:40.577Z,49.43
2022-11-15T15:51:15.459Z,49.68
2022-11-15T15:53:45.277Z,49.47
2022-11-15T15:56:15.266Z,49.87
2022-11-15T15:58:41.750Z,49.74
2022-11-15T16:01:08.416Z,50.10
2022-11-15T16:03:34.976Z,49.78
2022-11-15T16:06:05.154Z,50.10
2022-11-15T16:08:42.564Z,50.21
2022-11-15T16:11:14.550Z,50.13
2022-11-15T16:13:42.130Z,50.35
2022-11-15T16:16:14.206Z,50.23
2022-11-15T16:18:40.700Z,50.47
2022-11-15T16:21:09.338Z,50.61
2022-11-15T16:23:35.853Z,50.92
2022-11-15T16:26:25.522Z,50.83
2022-11-15T16:28:52.851Z,50.97
2022-11-15T16:31:22.072Z,50.91
2022-11-15T16:33:49.004Z,50.76
2022-11-15T16:36:30.555Z,50.97
2022-11-15T16:38:58.515Z,51.26
2022-11-15T16:41:25.214Z,51.31
2022-11-15T16:43:52.434Z,51.55
2022-11-15T16:46:24.386Z,51.52
2022-11-15T16:48:51.476Z,51.41
2022-11-15T16:51:18.141Z,51.97
2022-11-15T16:53:44.876Z,52.02
2022-11-15T16:56:26.396Z,51.99
2022-11-15T16:59:00.328Z,52.39
2022-11-15T17:01:50.675Z,52.57
2022-11-15T17:04:22.660Z,52.61
2022-11-15T17:06:49.596Z,52.64
2022-11-15T17:09:25.966Z,53.32
2022-11-15T17:11:52.936Z,53.08
2022-11-15T17:14:23.572Z,53.58
2022-11-15T17:16:50.449Z,53.81
2022-11-15T17:19:21.745Z,54.06
2022-11-15T17:21:51.765Z,54.14
2022-11-15T17:24:23.041Z,53.91
2022-11-15T17:26:49.614Z,54.39
2022-11-15T17:29:16.134Z,54.48
2022-11-15T17:31:42.666Z,54.90
2022-11-15T17:34:09.187Z,54.77
2022-11-15T17:36:40.618Z,55.12
2022-11-15T17:39:07.345Z,54.86
2022-11-15T17:41:33.828Z,55.40
2022-11-15T17:44:02.087Z,55.56
2022-11-15T17:46:29.317Z,55.42
2022-11-15T17:48:57.080Z,55.96
2022-11-15T17:51:24.093Z,56.15
2022-11-15T17:53:51.430Z,56.10
2022-11-15T17:56:20.439Z,56.31
2022-11-15T17:58:53.037Z,56.62
2022-11-15T18:01:20.954Z,56.67
2022-11-15T18:03:48.540Z,56.48
2022-11-15T18:06:20.846Z,57.20
2022-11-15T18:08:49.070Z,57.15
2022-11-15T18:11:20.038Z,57.26
2022-11-15T18:13:52.242Z,57.24
2022-11-15T18:16:22.392Z,57.22
2022-11-15T18:18:49.008Z,57.81
2022-11-15T18:21:19.959Z,57.64
2022-11-15T18:23:46.611Z,57.71
2022-11-15T18:26:17.956Z,57.83
2022-11-15T18:28:49.348Z,58.34
2022-11-15T18:31:27.319Z,58.42
2022-11-15T18:33:54.271Z,58.26
2022-11-15T18:36:27.501Z,58.54
2022-11-15T18:38:59.023Z,58.49
2022-11-15T18:41:28.387Z,58.68
2022-11-15T18:43:56.513Z,58.50
2022-11-15T18:46:24.815Z,58.98
2022-11-15T18:48:52.711Z,58.71
2022-11-15T18:51:21.323Z,59.15
2022-11-15T18:53:48.446Z,59.55
2022-11-15T18:56:19.656Z,58.99
2022-11-15T18:58:48.364Z,59.06
2022-11-15T19:01:38.001Z,59.45
2022-11-15T19:04:07.892Z,59.48
2022-11-15T19:06:41.146Z,59.34
2022-11-15T19:09:09.154Z,59.56
2022-11-15T19:11:37.436Z,59.76
2022-11-15T19:14:12.252Z,59.86
2022-11-15T19:16:41.543Z,60.18
2022-11-15T19:19:13.091Z,60.26
2022-11-15T19:21:39.599Z,59.97
2022-11-15T19:24:06.521Z,60.39
2022-11-15T19:26:33.122Z,60.47
2022-11-15T19:29:01.815Z,60.45
2022-11-15T19:31:30.356Z,60.54
2022-11-15T19:33:59.729Z,60.49
2022-11-15T19:36:33.136Z,60.79
2022-11-15T19:39:05.150Z,60.51
2022-11-15T19:41:32.377Z,60.94
2022-11-15T19:43:58.973Z,60.88
2022-11-15T19:46:29.324Z,60.84
2022-11-15T19:48:55.786Z,60.79
2022-11-15T19:51:24.439Z,61.12
2022-11-15T19:53:56.251Z,61.00
2022-11-15T19:56:27.230Z,61.50
2022-11-15T19:58:55.704Z,61.31
2022-11-15T20:01:23.558Z,61.62
2022-11-15T20:03:53.930Z,61.43
2022-11-15T20:06:24.810Z,61.85
2022-11-15T20:08:51.812Z,61.44
2022-11-15T20:11:19.099Z,61.46
2022-11-15T20:13:45.770Z,61.68
2022-11-15T20:16:19.756Z,61.58
2022-11-15T20:18:47.232Z,61.85
2022-11-15T20:21:14.195Z,61.76
2022-11-15T20:23:41.341Z,62.09
2022-11-15T20:26:12.457Z,61.66
2022-11-15T20:28:40.170Z,61.66
2022-11-15T20:31:07.790Z,62.14
2022-11-15T20:33:34.566Z,61.70
2022-11-15T20:36:11.888Z,61.81
2022-11-15T20:38:38.777Z,62.26
2022-11-15T20:41:06.340Z,62.42
2022-11-15T20:43:32.940Z,62.09
2022-11-15T20:46:04.182Z,62.10
2022-11-15T20:48:31.162Z,62.07
2022-11-15T20:51:23.975Z,61.99
2022-11-15T20:53:50.613Z,62.46
2022-11-15T20:56:22.154Z,61.98
2022-11-15T20:58:53.287Z,62.39
2022-11-15T21:01:24.761Z,62.41
2022-11-15T21:03:53.178Z,62.18
2022-11-15T21:06:22.489Z,62.45
2022-11-15T21:09:09.219Z,62.33
2022-11-15T21:11:54.292Z,62.48
2022-11-15T21:14:23.871Z,62.11
2022-11-15T21:16:50.432Z,62.23
2022-11-15T21:19:16.988Z,62.37
2022-11-15T21:21:43.570Z,62.22
2022-11-15T21:24:10.765Z,62.52
2022-11-15T21:26:37.393Z,62.38
2022-11-15T21:29:04.565Z,62.31
2022-11-15T21:31:31.949Z,62.25
2022-11-15T21:34:00.753Z,62.44
2022-11-15T21:36:29.009Z,62.23
2022-11-15T21:38:55.572Z,62.38
2022-11-15T21:41:22.075Z,62.36
2022-11-15T21:43:48.665Z,62.26
2022-11-15T21:46:15.169Z,62.20
2022-11-15T21:48:41.644Z,62.41
2022-11-15T21:51:10.898Z,62.46
2022-11-15T21:53:37.369Z,62.52
2022-11-15T21:56:06.740Z,62.33
2022-11-15T21:58:33.662Z,62.65
2022-11-15T22:01:19.180Z,62.44
2022-11-15T22:03:45.854Z,62.40
2022-11-15T22:06:17.693Z,62.68
2022-11-15T22:08:45.775Z,62.78
2022-11-15T22:11:12.920Z,62.61
2022-11-15T22:13:39.436Z,62.53
2022-11-15T22:16:09.941Z,62.42
2022-11-15T22:18:36.957Z,62.71
2022-11-15T22:21:06.952Z,62.85
2022-11-15T22:23:34.715Z,62.73
2022-11-15T22:26:02.025Z,62.98
2022-11-15T22:28:30.371Z,63.03
2022-11-15T22:30:57.859Z,63.10
2022-11-15T22:33:27.308Z,62.83
2022-11-15T22:35:57.347Z,62.75
2022-11-15T22:38:24.992Z,62.92
2022-11-15T22:40:51.637Z,62.89
2022-11-15T22:43:21.137Z,63.08
2022-11-15T22:45:54.469Z,62.95
2022-11-15T22:48:27.542Z,63.05
2022-11-15T22:50:54.648Z,62.78
2022-11-15T22:53:21.923Z,63.19
2022-11-15T22:55:58.460Z,63.16
2022-11-15T22:58:27.356Z,63.20
2022-11-15T23:00:56.891Z,63.40
2022-11-15T23:03:24.045Z,63.19
2022-11-15T23:05:54.885Z,63.32
2022-11-15T23:08:23.299Z,63.16
2022-11-15T23:11:08.437Z,63.53
2022-11-15T23:13:34.910Z,63.42
2022-11-15T23:16:25.243Z,63.22
2022-11-15T23:18:57.305Z,63.13
2022-11-15T23:21:49.536Z,63.30
2022-11-15T23:24:24.046Z,63.47
2022-11-15T23:26:53.317Z,63.35
2022-11-15T23:29:22.904Z,63.10
2022-11-15T23:32:07.927Z,63.15
2022-11-15T23:34:40.982Z,63.31
2022-11-15T23:37:09.810Z,63.61
2022-11-15T23:39:36.312Z,63.49
2022-11-15T23:42:08.592Z,63.32
2022-11-15T23:44:39.980Z,63.59
2022-11-15T23:47:06.492Z,63.45
2022-11-15T23:49:33.127Z,63.99
2022-11-15T23:51:59.593Z,63.75
2022-11-15T23:54:29.163Z,63.85
2022-11-15T23:56:55.597Z,63.86
2022-11-15T23:59:22.104Z,63.89
